sensor_id;sensor_type;location;lat;lon;timestamp;pressure;altitude;pressure_sealevel;temperature;humidity
76156;BME280;64906;51.290;7.348;2022-11-18T00:00:46;96746.81;;;19.47;52.76
76156;BME280;64906;51.290;7.348;2022-11-18T00:03:12;96752.28;;;19.47;52.56
76156;BME280;64906;51.290;7.348;2022-11-18T00:05:37;96756.47;;;19.45;52.67
76156;BME280;64906;51.290;7.348;2022-11-18T00:08:02;96763.91;;;19.44;52.54
76156;BME280;64906;51.290;7.348;2022-11-18T00:10:28;96766.66;;;19.44;52.89
76156;BME280;64906;51.290;7.348;2022-11-18T00:12:53;96765.03;;;19.43;52.53
76156;BME280;64906;51.290;7.348;2022-11-18T00:15:36;96767.28;;;19.41;52.72
76156;BME280;64906;51.290;7.348;2022-11-18T00:18:02;96772.75;;;19.41;52.50
76156;BME280;64906;51.290;7.348;2022-11-18T00:20:27;96763.44;;;19.42;52.57
76156;BME280;64906;51.290;7.348;2022-11-18T00:22:52;96772.00;;;19.41;52.78
76156;BME280;64906;51.290;7.348;2022-11-18T00:25:18;96772.31;;;19.39;53.00
76156;BME280;64906;51.290;7.348;2022-11-18T00:27:43;96776.97;;;19.39;52.71
76156;BME280;64906;51.290;7.348;2022-11-18T00:30:09;96780.06;;;19.37;52.66
76156;BME280;64906;51.290;7.348;2022-11-18T00:32:35;96783.13;;;19.36;52.61
76156;BME280;64906;51.290;7.348;2022-11-18T00:35:00;96779.59;;;19.35;52.79
76156;BME280;64906;51.290;7.348;2022-11-18T00:37:25;96781.16;;;19.36;52.78
76156;BME280;64906;51.290;7.348;2022-11-18T00:39:50;96778.00;;;19.34;52.47
76156;BME280;64906;51.290;7.348;2022-11-18T00:42:16;96783.47;;;19.34;52.76
76156;BME280;64906;51.290;7.348;2022-11-18T00:44:59;96778.00;;;19.34;52.78
76156;BME280;64906;51.290;7.348;2022-11-18T00:47:25;96782.19;;;19.32;52.44
76156;BME280;64906;51.290;7.348;2022-11-18T00:49:50;96782.19;;;19.32;52.86
76156;BME280;64906;51.290;7.348;2022-11-18T00:52:15;96784.91;;;19.32;52.58
76156;BME280;64906;51.290;7.348;2022-11-18T00:54:40;96785.25;;;19.30;52.57
76156;BME280;64906;51.290;7.348;2022-11-18T00:57:06;96789.13;;;19.29;52.76
76156;BME280;64906;51.290;7.348;2022-11-18T00:59:31;96789.44;;;19.28;52.64
76156;BME280;64906;51.290;7.348;2022-11-18T01:01:56;96788.31;;;19.29;52.82
76156;BME280;64906;51.290;7.348;2022-11-18T01:04:22;96796.81;;;19.27;52.46
76156;BME280;64906;51.290;7.348;2022-11-18T01:06:47;96798.31;;;19.25;52.50
76156;BME280;64906;51.290;7.348;2022-11-18T01:09:12;96789.28;;;19.24;52.70
76156;BME280;64906;51.290;7.348;2022-11-18T01:11:38;96803.63;;;19.21;52.54
76156;BME280;64906;51.290;7.348;2022-11-18T01:14:25;96806.38;;;19.21;52.61
76156;BME280;64906;51.290;7.348;2022-11-18T01:16:54;96815.69;;;19.20;53.10
76156;BME280;64906;51.290;7.348;2022-11-18T01:19:20;96810.56;;;19.19;52.72
76156;BME280;64906;51.290;7.348;2022-11-18T01:21:46;96812.19;;;19.20;52.91
76156;BME280;64906;51.290;7.348;2022-11-18T01:24:11;96811.38;;;19.19;52.92
76156;BME280;64906;51.290;7.348;2022-11-18T01:26:36;96816.84;;;19.19;52.64
76156;BME280;64906;51.290;7.348;2022-11-18T01:29:02;96812.03;;;19.16;52.75
76156;BME280;64906;51.290;7.348;2022-11-18T01:31:27;96813.63;;;19.17;52.75
76156;BME280;64906;51.290;7.348;2022-11-18T01:33:52;96824.56;;;19.17;52.95
76156;BME280;64906;51.290;7.348;2022-11-18T01:36:23;96826.50;;;19.17;52.70
76156;BME280;64906;51.290;7.348;2022-11-18T01:38:50;96822.63;;;19.18;52.58
76156;BME280;64906;51.290;7.348;2022-11-18T01:41:16;96828.44;;;19.16;52.57
76156;BME280;64906;51.290;7.348;2022-11-18T01:46:20;96834.69;;;19.17;52.65
76156;BME280;64906;51.290;7.348;2022-11-18T01:48:50;96832.19;;;19.12;52.72
76156;BME280;64906;51.290;7.348;2022-11-18T01:51:19;96828.97;;;19.10;52.69
76156;BME280;64906;51.290;7.348;2022-11-18T01:53:57;96830.06;;;19.09;52.88
76156;BME280;64906;51.290;7.348;2022-11-18T01:56:30;96826.41;;;19.05;52.85
76156;BME280;64906;51.290;7.348;2022-11-18T01:59:01;96837.69;;;19.03;52.55
76156;BME280;64906;51.290;7.348;2022-11-18T02:01:27;96837.22;;;19.01;53.05
76156;BME280;64906;51.290;7.348;2022-11-18T02:03:53;96836.72;;;18.99;52.89
76156;BME280;64906;51.290;7.348;2022-11-18T02:06:19;96837.53;;;19.00;52.75
76156;BME280;64906;51.290;7.348;2022-11-18T02:08:44;96846.06;;;18.98;52.79
76156;BME280;64906;51.290;7.348;2022-11-18T02:11:13;96849.91;;;18.97;53.08
76156;BME280;64906;51.290;7.348;2022-11-18T02:14:01;96848.66;;;18.95;53.08
76156;BME280;64906;51.290;7.348;2022-11-18T02:19:49;96847.38;;;18.92;52.88
76156;BME280;64906;51.290;7.348;2022-11-18T02:25:06;96849.97;;;18.89;52.79
76156;BME280;64906;51.290;7.348;2022-11-18T02:33:39;96853.06;;;18.87;53.01
76156;BME280;64906;51.290;7.348;2022-11-18T02:36:15;96857.38;;;18.88;52.72
76156;BME280;64906;51.290;7.348;2022-11-18T02:38:45;96857.06;;;18.81;53.03
76156;BME280;64906;51.290;7.348;2022-11-18T02:41:16;96867.34;;;18.84;52.77
76156;BME280;64906;51.290;7.348;2022-11-18T02:43:48;96863.34;;;18.82;53.01
76156;BME280;64906;51.290;7.348;2022-11-18T02:46:19;96869.97;;;18.81;52.88
76156;BME280;64906;51.290;7.348;2022-11-18T02:48:49;96863.34;;;18.82;52.92
76156;BME280;64906;51.290;7.348;2022-11-18T02:51:19;96853.06;;;18.79;52.91
76156;BME280;64906;51.290;7.348;2022-11-18T02:53:47;96864.34;;;18.77;52.95
76156;BME280;64906;51.290;7.348;2022-11-18T02:56:14;96858.41;;;18.75;52.91
76156;BME280;64906;51.290;7.348;2022-11-18T02:58:40;96872.38;;;18.73;52.96
76156;BME280;64906;51.290;7.348;2022-11-18T03:01:06;96877.84;;;18.73;52.83
76156;BME280;64906;51.290;7.348;2022-11-18T03:03:35;96880.91;;;18.72;53.20
76156;BME280;64906;51.290;7.348;2022-11-18T03:06:06;96874.31;;;18.73;52.89
76156;BME280;64906;51.290;7.348;2022-11-18T03:08:51;96884.75;;;18.71;53.27
76156;BME280;64906;51.290;7.348;2022-11-18T03:11:23;96881.09;;;18.67;53.10
76156;BME280;64906;51.290;7.348;2022-11-18T03:14:10;96890.72;;;18.64;52.89
76156;BME280;64906;51.290;7.348;2022-11-18T03:16:54;96890.88;;;18.68;53.20
76156;BME280;64906;51.290;7.348;2022-11-18T03:19:31;96891.22;;;18.66;53.05
76156;BME280;64906;51.290;7.348;2022-11-18T03:22:10;96893.47;;;18.64;52.85
76156;BME280;64906;51.290;7.348;2022-11-18T03:24:44;96890.41;;;18.66;52.88
76156;BME280;64906;51.290;7.348;2022-11-18T03:27:19;96896.19;;;18.64;53.01
76156;BME280;64906;51.290;7.348;2022-11-18T03:29:50;96890.56;;;18.61;53.02
76156;BME280;64906;51.290;7.348;2022-11-18T03:32:26;96893.78;;;18.63;52.77
76156;BME280;64906;51.290;7.348;2022-11-18T03:35:01;96896.84;;;18.61;52.89
76156;BME280;64906;51.290;7.348;2022-11-18T03:37:30;96895.59;;;18.59;53.12
76156;BME280;64906;51.290;7.348;2022-11-18T03:40:03;96894.44;;;18.60;52.94
76156;BME280;64906;51.290;7.348;2022-11-18T03:42:34;96904.13;;;18.57;53.17
76156;BME280;64906;51.290;7.348;2022-11-18T03:45:08;96903.94;;;18.54;53.18
76156;BME280;64906;51.290;7.348;2022-11-18T03:47:39;96909.56;;;18.57;53.04
76156;BME280;64906;51.290;7.348;2022-11-18T03:50:19;96913.91;;;18.58;52.94
76156;BME280;64906;51.290;7.348;2022-11-18T03:52:47;96918.41;;;18.54;52.73
76156;BME280;64906;51.290;7.348;2022-11-18T03:55:16;96920.69;;;18.52;53.21
76156;BME280;64906;51.290;7.348;2022-11-18T03:57:57;96921.47;;;18.53;53.10
76156;BME280;64906;51.290;7.348;2022-11-18T04:00:27;96924.50;;;18.51;53.11
76156;BME280;64906;51.290;7.348;2022-11-18T04:02:53;96925.31;;;18.52;53.16
76156;BME280;64906;51.290;7.348;2022-11-18T04:05:18;96923.72;;;18.51;53.07
76156;BME280;64906;51.290;7.348;2022-11-18T04:07:55;96931.44;;;18.49;53.04
76156;BME280;64906;51.290;7.348;2022-11-18T04:10:26;96948.66;;;18.49;52.86
76156;BME280;64906;51.290;7.348;2022-11-18T04:15:45;96947.03;;;18.48;53.02
76156;BME280;64906;51.290;7.348;2022-11-18T04:18:10;96950.91;;;18.47;53.09
76156;BME280;64906;51.290;7.348;2022-11-18T04:20:36;96954.41;;;18.48;53.14
76156;BME280;64906;51.290;7.348;2022-11-18T04:23:02;96956.69;;;18.46;53.23
76156;BME280;64906;51.290;7.348;2022-11-18T04:25:28;96962.16;;;18.46;53.39
76156;BME280;64906;51.290;7.348;2022-11-18T04:27:53;96963.91;;;18.42;53.40
76156;BME280;64906;51.290;7.348;2022-11-18T04:30:18;96961.66;;;18.44;53.06
76156;BME280;64906;51.290;7.348;2022-11-18T04:32:44;96962.00;;;18.42;53.09
76156;BME280;64906;51.290;7.348;2022-11-18T04:35:10;96969.69;;;18.40;53.22
76156;BME280;64906;51.290;7.348;2022-11-18T04:37:35;96966.16;;;18.40;53.33
76156;BME280;64906;51.290;7.348;2022-11-18T04:40:01;96968.09;;;18.39;53.14
76156;BME280;64906;51.290;7.348;2022-11-18T04:42:26;96970.03;;;18.39;53.11
76156;BME280;64906;51.290;7.348;2022-11-18T04:44:51;96968.56;;;18.41;53.19
76156;BME280;64906;51.290;7.348;2022-11-18T04:47:17;96973.56;;;18.39;53.15
76156;BME280;64906;51.290;7.348;2022-11-18T04:49:42;96974.63;;;18.38;53.11
76156;BME280;64906;51.290;7.348;2022-11-18T04:52:08;96974.19;;;18.36;53.16
76156;BME280;64906;51.290;7.348;2022-11-18T04:54:34;96982.06;;;18.38;53.29
76156;BME280;64906;51.290;7.348;2022-11-18T04:56:59;96984.31;;;18.36;53.06
76156;BME280;64906;51.290;7.348;2022-11-18T04:59:27;96978.34;;;18.34;53.32
76156;BME280;64906;51.290;7.348;2022-11-18T05:01:53;96986.53;;;18.34;53.19
76156;BME280;64906;51.290;7.348;2022-11-18T05:04:24;96985.72;;;18.33;53.05
76156;BME280;64906;51.290;7.348;2022-11-18T05:06:50;96982.66;;;18.35;53.04
76156;BME280;64906;51.290;7.348;2022-11-18T05:09:16;96983.81;;;18.34;53.22
76156;BME280;64906;51.290;7.348;2022-11-18T05:11:42;96983.66;;;18.30;53.38
76156;BME280;64906;51.290;7.348;2022-11-18T05:14:26;96984.94;;;18.33;53.16
76156;BME280;64906;51.290;7.348;2022-11-18T05:16:52;96983.31;;;18.32;52.93
76156;BME280;64906;51.290;7.348;2022-11-18T05:19:17;96994.75;;;18.34;53.25
76156;BME280;64906;51.290;7.348;2022-11-18T05:21:43;96991.53;;;18.32;53.04
76156;BME280;64906;51.290;7.348;2022-11-18T05:24:08;96992.31;;;18.32;53.01
76156;BME280;64906;51.290;7.348;2022-11-18T05:26:34;96996.81;;;18.37;52.92
76156;BME280;64906;51.290;7.348;2022-11-18T05:28:59;97000.06;;;18.39;52.72
76156;BME280;64906;51.290;7.348;2022-11-18T05:31:24;97012.59;;;18.40;52.84
76156;BME280;64906;51.290;7.348;2022-11-18T05:33:50;97010.34;;;18.42;52.75
76156;BME280;64906;51.290;7.348;2022-11-18T05:36:17;97014.22;;;18.49;52.65
76156;BME280;64906;51.290;7.348;2022-11-18T05:38:43;97019.69;;;18.49;52.74
76156;BME280;64906;51.290;7.348;2022-11-18T05:41:09;97022.56;;;18.53;52.31
76156;BME280;64906;51.290;7.348;2022-11-18T05:43:35;97017.91;;;18.53;52.52
76156;BME280;64906;51.290;7.348;2022-11-18T05:46:02;97020.31;;;18.55;52.29
76156;BME280;64906;51.290;7.348;2022-11-18T05:48:28;97029.16;;;18.60;52.17
76156;BME280;64906;51.290;7.348;2022-11-18T05:50:54;97024.97;;;18.63;52.03
76156;BME280;64906;51.290;7.348;2022-11-18T05:53:22;97030.91;;;18.65;52.04
76156;BME280;64906;51.290;7.348;2022-11-18T05:55:52;97038.00;;;18.66;52.05
76156;BME280;64906;51.290;7.348;2022-11-18T05:58:19;97039.28;;;18.68;51.89
76156;BME280;64906;51.290;7.348;2022-11-18T06:00:45;97040.88;;;18.69;51.88
76156;BME280;64906;51.290;7.348;2022-11-18T06:03:16;97041.22;;;18.68;52.11
76156;BME280;64906;51.290;7.348;2022-11-18T06:05:43;97041.38;;;18.71;51.64
76156;BME280;64906;51.290;7.348;2022-11-18T06:08:10;97047.31;;;18.73;51.86
76156;BME280;64906;51.290;7.348;2022-11-18T06:10:36;97050.53;;;18.76;51.69
76156;BME280;64906;51.290;7.348;2022-11-18T06:13:07;97057.28;;;18.78;51.71
76156;BME280;64906;51.290;7.348;2022-11-18T06:15:40;97059.69;;;18.80;51.49
76156;BME280;64906;51.290;7.348;2022-11-18T06:18:11;97061.63;;;18.79;51.79
76156;BME280;64906;51.290;7.348;2022-11-18T06:20:41;97062.75;;;18.87;51.67
76156;BME280;64906;51.290;7.348;2022-11-18T06:23:06;97065.81;;;18.85;51.87
76156;BME280;64906;51.290;7.348;2022-11-18T06:25:32;97075.59;;;18.86;51.80
76156;BME280;64906;51.290;7.348;2022-11-18T06:27:59;97081.56;;;18.88;52.00
76156;BME280;64906;51.290;7.348;2022-11-18T06:30:26;97080.75;;;18.88;51.95
76156;BME280;64906;51.290;7.348;2022-11-18T06:32:51;97074.63;;;18.91;51.87
76156;BME280;64906;51.290;7.348;2022-11-18T06:35:17;97075.28;;;18.96;51.93
76156;BME280;64906;51.290;7.348;2022-11-18T06:37:42;97072.22;;;18.98;51.67
76156;BME280;64906;51.290;7.348;2022-11-18T06:40:08;97074.63;;;18.99;51.76
76156;BME280;64906;51.290;7.348;2022-11-18T06:42:34;97079.00;;;19.00;51.58
76156;BME280;64906;51.290;7.348;2022-11-18T06:45:18;97079.13;;;19.04;51.66
76156;BME280;64906;51.290;7.348;2022-11-18T06:47:43;97083.63;;;19.08;51.83
76156;BME280;64906;51.290;7.348;2022-11-18T06:50:08;97098.59;;;19.11;51.58
76156;BME280;64906;51.290;7.348;2022-11-18T06:52:34;97099.22;;;19.16;51.74
76156;BME280;64906;51.290;7.348;2022-11-18T06:54:59;97101.97;;;19.16;51.63
76156;BME280;64906;51.290;7.348;2022-11-18T06:57:24;97105.50;;;19.17;51.60
76156;BME280;64906;51.290;7.348;2022-11-18T06:59:50;97108.88;;;19.22;51.47
76156;BME280;64906;51.290;7.348;2022-11-18T07:02:15;97115.94;;;19.23;51.62
76156;BME280;64906;51.290;7.348;2022-11-18T07:04:43;97114.81;;;19.24;51.43
76156;BME280;64906;51.290;7.348;2022-11-18T07:07:08;97121.56;;;19.27;51.77
76156;BME280;64906;51.290;7.348;2022-11-18T07:09:35;97124.50;;;19.30;51.62
76156;BME280;64906;51.290;7.348;2022-11-18T07:12:01;97120.31;;;19.33;51.87
76156;BME280;64906;51.290;7.348;2022-11-18T07:14:26;97120.44;;;19.36;51.59
76156;BME280;64906;51.290;7.348;2022-11-18T07:16:51;97133.84;;;19.38;51.86
76156;BME280;64906;51.290;7.348;2022-11-18T07:19:17;97135.09;;;19.40;51.61
76156;BME280;64906;51.290;7.348;2022-11-18T07:21:42;97141.53;;;19.44;52.00
76156;BME280;64906;51.290;7.348;2022-11-18T07:24:11;97151.50;;;19.49;51.98
76156;BME280;64906;51.290;7.348;2022-11-18T07:26:36;97152.00;;;19.51;51.75
76156;BME280;64906;51.290;7.348;2022-11-18T07:29:02;97153.44;;;19.57;51.73
76156;BME280;64906;51.290;7.348;2022-11-18T07:31:28;97164.38;;;19.57;51.75
76156;BME280;64906;51.290;7.348;2022-11-18T07:33:53;97155.19;;;19.61;51.63
76156;BME280;64906;51.290;7.348;2022-11-18T07:36:21;97158.41;;;19.63;51.56
76156;BME280;64906;51.290;7.348;2022-11-18T07:38:47;97163.53;;;19.65;51.63
76156;BME280;64906;51.290;7.348;2022-11-18T07:41:19;97173.34;;;19.66;51.62
76156;BME280;64906;51.290;7.348;2022-11-18T07:43:45;97171.59;;;19.70;51.52
76156;BME280;64906;51.290;7.348;2022-11-18T07:46:18;97175.13;;;19.70;51.63
76156;BME280;64906;51.290;7.348;2022-11-18T07:48:46;97185.91;;;19.75;51.56
76156;BME280;64906;51.290;7.348;2022-11-18T07:51:13;97187.19;;;19.78;51.52
76156;BME280;64906;51.290;7.348;2022-11-18T07:53:39;97189.75;;;19.83;51.25
76156;BME280;64906;51.290;7.348;2022-11-18T07:56:05;97193.91;;;19.89;50.96
76156;BME280;64906;51.290;7.348;2022-11-18T07:58:30;97195.72;;;19.85;51.19
76156;BME280;64906;51.290;7.348;2022-11-18T08:00:56;97191.19;;;19.89;51.32
76156;BME280;64906;51.290;7.348;2022-11-18T08:03:28;97196.00;;;19.92;50.90
76156;BME280;64906;51.290;7.348;2022-11-18T08:06:00;97196.97;;;19.96;50.98
76156;BME280;64906;51.290;7.348;2022-11-18T08:08:25;97206.00;;;19.96;50.81
76156;BME280;64906;51.290;7.348;2022-11-18T08:10:54;97208.91;;;19.91;50.71
76156;BME280;64906;51.290;7.348;2022-11-18T08:13:21;97213.41;;;19.96;50.56
76156;BME280;64906;51.290;7.348;2022-11-18T08:15:46;97208.91;;;19.91;50.72
76156;BME280;64906;51.290;7.348;2022-11-18T08:18:11;97216.28;;;19.99;50.70
76156;BME280;64906;51.290;7.348;2022-11-18T08:20:37;97215.31;;;20.04;50.38
76156;BME280;64906;51.290;7.348;2022-11-18T08:23:02;97219.78;;;20.08;50.66
76156;BME280;64906;51.290;7.348;2022-11-18T08:25:27;97217.22;;;20.12;50.75
76156;BME280;64906;51.290;7.348;2022-11-18T08:27:53;97219.00;;;20.17;50.52
76156;BME280;64906;51.290;7.348;2022-11-18T08:30:18;97221.88;;;20.20;50.57
76156;BME280;64906;51.290;7.348;2022-11-18T08:32:44;97227.50;;;20.24;50.63
76156;BME280;64906;51.290;7.348;2022-11-18T08:35:09;97222.66;;;20.29;50.25
76156;BME280;64906;51.290;7.348;2022-11-18T08:37:34;97228.47;;;20.28;50.56
76156;BME280;64906;51.290;7.348;2022-11-18T08:40:00;97230.06;;;20.29;50.50
76156;BME280;64906;51.290;7.348;2022-11-18T08:42:25;97234.75;;;20.28;50.37
76156;BME280;64906;51.290;7.348;2022-11-18T08:44:52;97231.66;;;20.30;50.72
76156;BME280;64906;51.290;7.348;2022-11-18T08:47:17;97236.53;;;20.33;50.81
76156;BME280;64906;51.290;7.348;2022-11-18T08:49:42;97236.53;;;20.33;51.05
76156;BME280;64906;51.290;7.348;2022-11-18T08:52:08;97231.81;;;20.33;51.24
76156;BME280;64906;51.290;7.348;2022-11-18T08:54:34;97240.34;;;20.40;50.94
76156;BME280;64906;51.290;7.348;2022-11-18T08:56:59;97240.34;;;20.40;51.15
76156;BME280;64906;51.290;7.348;2022-11-18T08:59:25;97243.25;;;20.44;51.21
76156;BME280;64906;51.290;7.348;2022-11-18T09:01:51;97238.09;;;20.42;51.48
76156;BME280;64906;51.290;7.348;2022-11-18T09:04:17;97248.72;;;20.44;51.29
76156;BME280;64906;51.290;7.348;2022-11-18T09:06:42;97248.38;;;20.45;51.24
76156;BME280;64906;51.290;7.348;2022-11-18T09:09:07;97246.78;;;20.44;51.50
76156;BME280;64906;51.290;7.348;2022-11-18T09:11:33;97251.13;;;20.45;51.48
76156;BME280;64906;51.290;7.348;2022-11-18T09:13:59;97248.06;;;20.47;51.69
76156;BME280;64906;51.290;7.348;2022-11-18T09:16:27;97259.50;;;20.49;51.68
76156;BME280;64906;51.290;7.348;2022-11-18T09:18:54;97254.34;;;20.47;51.32
76156;BME280;64906;51.290;7.348;2022-11-18T09:21:19;97261.44;;;20.48;51.54
76156;BME280;64906;51.290;7.348;2022-11-18T09:23:45;97266.91;;;20.48;51.80
76156;BME280;64906;51.290;7.348;2022-11-18T09:26:13;97267.25;;;20.47;51.47
76156;BME280;64906;51.290;7.348;2022-11-18T09:28:39;97272.72;;;20.47;51.69
76156;BME280;64906;51.290;7.348;2022-11-18T09:31:09;97278.69;;;20.49;51.99
76156;BME280;64906;51.290;7.348;2022-11-18T09:33:35;97277.56;;;20.50;51.55
76156;BME280;64906;51.290;7.348;2022-11-18T09:36:03;97279.47;;;20.49;51.50
76156;BME280;64906;51.290;7.348;2022-11-18T09:38:29;97283.03;;;20.50;51.68
76156;BME280;64906;51.290;7.348;2022-11-18T09:41:05;97287.25;;;20.47;51.93
76156;BME280;64906;51.290;7.348;2022-11-18T09:49:02;97293.06;;;20.46;51.94
76156;BME280;64906;51.290;7.348;2022-11-18T09:51:45;97298.66;;;20.49;51.83
76156;BME280;64906;51.290;7.348;2022-11-18T09:54:22;97296.59;;;20.46;51.65
76156;BME280;64906;51.290;7.348;2022-11-18T09:56:50;97302.06;;;20.46;51.47
76156;BME280;64906;51.290;7.348;2022-11-18T09:59:18;97312.88;;;20.43;51.60
76156;BME280;64906;51.290;7.348;2022-11-18T10:01:44;97315.94;;;20.41;51.40
76156;BME280;64906;51.290;7.348;2022-11-18T10:04:18;97318.69;;;20.41;51.39
76156;BME280;64906;51.290;7.348;2022-11-18T10:06:45;97320.00;;;20.44;51.12
76156;BME280;64906;51.290;7.348;2022-11-18T10:24:23;97337.53;;;20.43;51.23
76156;BME280;64906;51.290;7.348;2022-11-18T10:26:54;97343.03;;;20.43;51.29
76156;BME280;64906;51.290;7.348;2022-11-18T10:29:20;97341.91;;;20.44;51.17
76156;BME280;64906;51.290;7.348;2022-11-18T10:34:20;97346.59;;;20.43;51.42
76156;BME280;64906;51.290;7.348;2022-11-18T10:37:45;97345.00;;;20.42;51.55
76156;BME280;64906;51.290;7.348;2022-11-18T10:39:56;97354.47;;;20.45;51.66
76156;BME280;64906;51.290;7.348;2022-11-18T10:42:45;97358.84;;;20.46;51.38
76156;BME280;64906;51.290;7.348;2022-11-18T10:48:08;97354.78;;;20.52;51.27
76156;BME280;64906;51.290;7.348;2022-11-18T10:50:36;97351.56;;;20.50;51.53
76156;BME280;64906;51.290;7.348;2022-11-18T10:53:04;97348.81;;;20.50;51.59
76156;BME280;64906;51.290;7.348;2022-11-18T10:55:30;97346.88;;;20.59;51.32
76156;BME280;64906;51.290;7.348;2022-11-18T10:57:59;97339.75;;;20.58;51.21
76156;BME280;64906;51.290;7.348;2022-11-18T11:00:41;97343.81;;;20.52;51.28
76156;BME280;64906;51.290;7.348;2022-11-18T11:14:25;97352.06;;;20.52;51.43
76156;BME280;64906;51.290;7.348;2022-11-18T11:16:57;97345.91;;;20.55;51.46
76156;BME280;64906;51.290;7.348;2022-11-18T11:19:30;97347.06;;;20.54;51.70
76156;BME280;64906;51.290;7.348;2022-11-18T11:21:57;97356.06;;;20.54;51.61
76156;BME280;64906;51.290;7.348;2022-11-18T11:24:25;97354.13;;;20.55;51.68
76156;BME280;64906;51.290;7.348;2022-11-18T11:32:32;97364.75;;;20.65;51.57
76156;BME280;64906;51.290;7.348;2022-11-18T11:37:52;97361.69;;;20.66;51.64
76156;BME280;64906;51.290;7.348;2022-11-18T11:40:37;97369.25;;;20.61;51.53
76156;BME280;64906;51.290;7.348;2022-11-18T11:48:48;97362.84;;;20.57;51.42
76156;BME280;64906;51.290;7.348;2022-11-18T11:51:30;97366.72;;;20.56;51.54
76156;BME280;64906;51.290;7.348;2022-11-18T12:00:03;97363.66;;;20.57;51.54
76156;BME280;64906;51.290;7.348;2022-11-18T12:02:39;97373.81;;;20.57;51.27
76156;BME280;64906;51.290;7.348;2022-11-18T12:05:21;97373.81;;;20.57;51.52
76156;BME280;64906;51.290;7.348;2022-11-18T12:07:59;97368.16;;;20.62;51.32
76156;BME280;64906;51.290;7.348;2022-11-18T12:10:30;97367.34;;;20.61;51.04
76156;BME280;64906;51.290;7.348;2022-11-18T12:16:13;97369.13;;;20.57;51.23
76156;BME280;64906;51.290;7.348;2022-11-18T12:24:34;97373.31;;;20.55;51.26
76156;BME280;64906;51.290;7.348;2022-11-18T12:27:12;97380.44;;;20.56;51.60
76156;BME280;64906;51.290;7.348;2022-11-18T12:32:35;97379.78;;;20.59;51.29
76156;BME280;64906;51.290;7.348;2022-11-18T12:35:20;97378.66;;;20.51;51.57
76156;BME280;64906;51.290;7.348;2022-11-18T12:40:45;97378.47;;;20.56;51.33
76156;BME280;64906;51.290;7.348;2022-11-18T12:51:45;97387.69;;;20.60;51.30
76156;BME280;64906;51.290;7.348;2022-11-18T12:57:22;97382.69;;;20.62;50.98
76156;BME280;64906;51.290;7.348;2022-11-18T12:59:49;97389.75;;;20.63;51.04
76156;BME280;64906;51.290;7.348;2022-11-18T13:02:23;97392.81;;;20.62;51.00
76156;BME280;64906;51.290;7.348;2022-11-18T13:07:40;97391.69;;;20.54;51.39
76156;BME280;64906;51.290;7.348;2022-11-18T13:10:28;97395.59;;;20.53;52.04
76156;BME280;64906;51.290;7.348;2022-11-18T13:12:54;97400.09;;;20.58;51.83
76156;BME280;64906;51.290;7.348;2022-11-18T13:15:20;97403.78;;;20.62;51.75
76156;BME280;64906;51.290;7.348;2022-11-18T13:23:22;97407.84;;;20.56;51.65
76156;BME280;64906;51.290;7.348;2022-11-18T13:26:29;97403.63;;;20.58;51.92
76156;BME280;64906;51.290;7.348;2022-11-18T13:31:43;97407.84;;;20.56;51.93
76156;BME280;64906;51.290;7.348;2022-11-18T13:34:24;97415.59;;;20.54;51.89
76156;BME280;64906;51.290;7.348;2022-11-18T13:36:52;97411.53;;;20.51;51.86
76156;BME280;64906;51.290;7.348;2022-11-18T13:39:26;97415.59;;;20.54;51.92
76156;BME280;64906;51.290;7.348;2022-11-18T13:44:38;97421.72;;;20.51;51.97
76156;BME280;64906;51.290;7.348;2022-11-18T13:47:23;97422.84;;;20.50;51.71
76156;BME280;64906;51.290;7.348;2022-11-18T13:50:12;97427.50;;;20.49;51.92
76156;BME280;64906;51.290;7.348;2022-11-18T13:52:41;97423.16;;;20.48;52.23
76156;BME280;64906;51.290;7.348;2022-11-18T13:55:24;97428.50;;;20.45;52.15
76156;BME280;64906;51.290;7.348;2022-11-18T14:00:28;97429.16;;;20.42;52.33
76156;BME280;64906;51.290;7.348;2022-11-18T14:02:58;97428.00;;;20.43;52.51
76156;BME280;64906;51.290;7.348;2022-11-18T14:05:25;97429.97;;;20.42;52.44
76156;BME280;64906;51.290;7.348;2022-11-18T14:07:58;97430.63;;;20.39;52.43
76156;BME280;64906;51.290;7.348;2022-11-18T14:10:41;97425.25;;;20.43;52.41
76156;BME280;64906;51.290;7.348;2022-11-18T14:13:26;97436.41;;;20.38;52.29
76156;BME280;64906;51.290;7.348;2022-11-18T14:15:53;97432.22;;;20.40;52.30
76156;BME280;64906;51.290;7.348;2022-11-18T14:20:52;97437.03;;;20.35;52.40
76156;BME280;64906;51.290;7.348;2022-11-18T14:23:25;97441.75;;;20.34;52.27
76156;BME280;64906;51.290;7.348;2022-11-18T14:25:52;97440.94;;;20.34;52.52
76156;BME280;64906;51.290;7.348;2022-11-18T14:31:44;97459.63;;;20.32;52.47
76156;BME280;64906;51.290;7.348;2022-11-18T14:34:17;97458.03;;;20.31;52.41
76156;BME280;64906;51.290;7.348;2022-11-18T14:36:45;97459.13;;;20.30;52.65
76156;BME280;64906;51.290;7.348;2022-11-18T14:39:18;97452.03;;;20.29;52.16
76156;BME280;64906;51.290;7.348;2022-11-18T14:41:45;97453.19;;;20.28;52.32
76156;BME280;64906;51.290;7.348;2022-11-18T14:44:11;97452.22;;;20.24;52.66
76156;BME280;64906;51.290;7.348;2022-11-18T14:46:42;97449.78;;;20.22;52.62
76156;BME280;64906;51.290;7.348;2022-11-18T14:49:14;97457.69;;;20.24;52.42
76156;BME280;64906;51.290;7.348;2022-11-18T14:51:40;97458.00;;;20.22;52.46
76156;BME280;64906;51.290;7.348;2022-11-18T14:54:06;97462.69;;;20.22;52.46
76156;BME280;64906;51.290;7.348;2022-11-18T14:56:33;97461.41;;;20.19;52.65
76156;BME280;64906;51.290;7.348;2022-11-18T14:58:59;97467.84;;;20.23;52.23
76156;BME280;64906;51.290;7.348;2022-11-18T15:01:25;97465.59;;;20.25;52.17
76156;BME280;64906;51.290;7.348;2022-11-18T15:03:52;97466.06;;;20.19;52.33
76156;BME280;64906;51.290;7.348;2022-11-18T15:06:18;97465.13;;;20.15;52.40
76156;BME280;64906;51.290;7.348;2022-11-18T15:08:45;97470.06;;;20.13;52.25
76156;BME280;64906;51.290;7.348;2022-11-18T15:11:11;97477.47;;;20.12;52.19
76156;BME280;64906;51.290;7.348;2022-11-18T15:13:37;97468.44;;;20.12;52.06